Terminal Aerodrome Forecast
Issued by NWS

Home | Current Version | Previous Version | Text Only | Print | Product List | Glossary On
Versions: 1 2 3 4 5 6 7 8 9 10 11 12 13 14 15 16 17 18 19 20 21 22 23 24 25 26 27 28 29
000
FTUS45 KCYS 272300
TAFLAR
TAF
KLAR 272322Z 2800/2824 33009KT P6SM VCTS SCT040CB BKN060
      TEMPO 2800/2802 VRB20G35KT 5SM TSRA BKN040CB
     FM280300 28006KT P6SM OVC040
     FM280900 30006KT 2SM BR OVC015
     FM281500 33010G20KT P6SM VCSH OVC035=

USA.gov is the U.S. government's official web portal to all federal, state and local government web resources and services.